createdAt,value
2022-08-19T00:02:01.580Z,100247.69
2022-08-19T00:04:33.889Z,100244.06
2022-08-19T00:07:04.755Z,100238.72
2022-08-19T00:09:33.638Z,100246.72
2022-08-19T00:12:02.660Z,100248.41
2022-08-19T00:14:33.170Z,100244.75
2022-08-19T00:17:02.280Z,100242.09
2022-08-19T00:19:31.230Z,100239.41
2022-08-19T00:21:59.973Z,100227.88
2022-08-19T00:24:29.988Z,100223.38
2022-08-19T00:27:25.060Z,100226.06
2022-08-19T00:29:47.198Z,100219.16
2022-08-19T00:32:21.815Z,100207.59
2022-08-19T00:34:50.221Z,100211.25
2022-08-19T00:37:19.008Z,100207.13
2022-08-19T00:39:49.212Z,100204.72
2022-08-19T00:42:17.879Z,100203.25
2022-08-19T00:44:46.453Z,100199.88
2022-08-19T00:47:16.169Z,100193.84
2022-08-19T00:49:52.146Z,100186.22
2022-08-19T00:52:28.064Z,100174.09
2022-08-19T00:54:59.513Z,100181.50
2022-08-19T00:57:34.557Z,100180.91
2022-08-19T01:00:06.649Z,100196.22
2022-08-19T01:02:35.382Z,100194.72
2022-08-19T01:05:10.885Z,100193.03
2022-08-19T01:07:41.525Z,100185.13
2022-08-19T01:10:16.420Z,100184.53
2022-08-19T01:12:45.380Z,100189.03
2022-08-19T01:15:17.759Z,100194.47
2022-08-19T01:17:47.857Z,100195.47
2022-08-19T01:20:21.120Z,100197.16
2022-08-19T01:22:54.962Z,100199.97
2022-08-19T01:25:29.361Z,100204.47
2022-08-19T01:28:09.890Z,100199.13
2022-08-19T01:30:39.611Z,100194.72
2022-08-19T01:33:12.962Z,100190.38
2022-08-19T01:35:42.159Z,100192.19
2022-08-19T01:38:21.369Z,100196.69
2022-08-19T01:40:50.297Z,100197.63
2022-08-19T01:43:19.982Z,100201.28
2022-08-19T01:45:48.799Z,100195.94
2022-08-19T01:48:17.510Z,100197.78
2022-08-19T01:50:46.221Z,100191.59
2022-08-19T01:53:16.198Z,100197.88
2022-08-19T01:55:46.134Z,100195.34
2022-08-19T01:58:21.496Z,100210.53
2022-08-19T02:00:50.477Z,100196.19
2022-08-19T02:03:19.233Z,100196.19
2022-08-19T02:05:47.902Z,100204.94
2022-08-19T02:08:17.749Z,100203.97
2022-08-19T02:10:46.811Z,100209.28
2022-08-19T02:13:15.621Z,100207.59
2022-08-19T02:15:49.603Z,100205.78
2022-08-19T02:18:18.060Z,100215.63
2022-08-19T02:20:48.520Z,100211.97
2022-08-19T02:23:19.204Z,100208.31
2022-08-19T02:25:50.145Z,100202.97
2022-08-19T02:28:19.077Z,100192.28
2022-08-19T02:30:49.776Z,100203.84
2022-08-19T02:33:19.029Z,100200.31
2022-08-19T02:35:49.000Z,100192.28
2022-08-19T02:38:26.893Z,100195.94
2022-08-19T02:40:58.582Z,100210.28
2022-08-19T02:43:28.519Z,100213.91
2022-08-19T02:45:57.014Z,100215.88
2022-08-19T02:48:27.452Z,100221.19
2022-08-19T02:51:02.494Z,100223.13
2022-08-19T02:53:32.412Z,100213.28
2022-08-19T02:56:00.822Z,100221.44
2022-08-19T02:58:29.205Z,100212.69
2022-08-19T03:00:59.423Z,100214.63
2022-08-19T03:03:28.437Z,100218.28
2022-08-19T03:06:09.042Z,100223.84
2022-08-19T03:08:39.808Z,100217.66
2022-08-19T03:11:08.663Z,100227.50
2022-08-19T03:13:37.021Z,100223.09
2022-08-19T03:16:07.783Z,100218.75
2022-08-19T03:18:36.177Z,100215.34
2022-08-19T03:21:05.264Z,100210.00
2022-08-19T03:23:34.699Z,100215.56
2022-08-19T03:26:16.400Z,100215.72
2022-08-19T03:28:58.335Z,100212.16
2022-08-19T03:31:45.663Z,100212.41
2022-08-19T03:34:27.149Z,100206.34
2022-08-19T03:37:06.680Z,100214.47
2022-08-19T03:39:35.494Z,100221.53
2022-08-19T03:42:32.263Z,100217.97
2022-08-19T03:45:11.429Z,100219.94
2022-08-19T03:47:42.852Z,100225.28
2022-08-19T03:50:11.809Z,100225.28
2022-08-19T03:52:40.589Z,100228.88
2022-08-19T03:55:14.260Z,100231.56
2022-08-19T03:57:44.019Z,100231.78
2022-08-19T04:00:14.395Z,100224.75
2022-08-19T04:02:58.462Z,100230.31
2022-08-19T04:05:30.482Z,100220.84
2022-08-19T04:08:00.063Z,100221.06
2022-08-19T04:10:29.615Z,100221.31
2022-08-19T04:12:59.474Z,100222.38
2022-08-19T04:15:29.769Z,100218.13
2022-08-19T04:17:58.142Z,100218.38
2022-08-19T04:20:26.519Z,100222.00
2022-08-19T04:22:55.004Z,100230.97
2022-08-19T04:25:23.497Z,100227.53
2022-08-19T04:27:51.965Z,100224.16
2022-08-19T04:30:23.522Z,100225.00
2022-08-19T04:32:52.117Z,100229.50
2022-08-19T04:35:24.441Z,100227.78
2022-08-19T04:37:53.446Z,100225.13
2022-08-19T04:40:39.536Z,100228.66
2022-08-19T04:43:08.062Z,100231.19
2022-08-19T04:45:43.740Z,100234.59
2022-08-19T04:48:27.163Z,100232.69
2022-08-19T04:50:59.475Z,100231.72
2022-08-19T04:53:29.625Z,100224.56
2022-08-19T04:56:09.649Z,100220.06
2022-08-19T04:58:42.727Z,100224.44
2022-08-19T05:01:15.196Z,100221.78
2022-08-19T05:03:43.954Z,100236.81
2022-08-19T05:06:15.558Z,100240.94
2022-08-19T05:08:46.193Z,100251.38
2022-08-19T05:11:19.107Z,100249.22
2022-08-19T05:13:50.525Z,100244.50
2022-08-19T05:16:22.810Z,100247.69
2022-08-19T05:19:09.822Z,100244.66
2022-08-19T05:22:01.325Z,100253.19
2022-08-19T05:24:30.565Z,100251.00
2022-08-19T05:26:59.760Z,100251.63
2022-08-19T05:29:29.984Z,100256.84
2022-08-19T05:32:09.270Z,100264.63
2022-08-19T05:34:38.984Z,100264.63
2022-08-19T05:37:09.285Z,100265.34
2022-08-19T05:39:39.457Z,100266.09
2022-08-19T05:42:12.365Z,100266.09
2022-08-19T05:44:44.253Z,100267.78
2022-08-19T05:47:15.790Z,100271.19
2022-08-19T05:49:45.074Z,100277.97
2022-08-19T05:52:16.438Z,100271.56
2022-08-19T05:54:51.012Z,100274.00
2022-08-19T05:57:20.766Z,100281.91
2022-08-19T05:59:53.276Z,100294.16
2022-08-19T06:02:28.508Z,100303.72
2022-08-19T06:04:56.976Z,100304.47
2022-08-19T06:07:25.571Z,100309.56
2022-08-19T06:10:00.159Z,100319.06
2022-08-19T06:12:32.639Z,100316.25
2022-08-19T06:15:02.397Z,100317.84
2022-08-19T06:17:32.739Z,100328.41
2022-08-19T06:20:01.300Z,100318.34
2022-08-19T06:22:30.366Z,100329.63
2022-08-19T06:24:58.795Z,100335.59
2022-08-19T06:27:27.164Z,100334.38
2022-08-19T06:29:55.520Z,100336.59
2022-08-19T06:32:23.911Z,100339.53
2022-08-19T06:34:53.660Z,100330.91
2022-08-19T06:37:22.749Z,100321.41
2022-08-19T06:39:52.113Z,100330.78
2022-08-19T06:42:21.739Z,100332.97
2022-08-19T06:44:53.533Z,100333.22
2022-08-19T06:47:26.521Z,100343.41
2022-08-19T06:50:03.732Z,100346.56
2022-08-19T06:52:34.233Z,100335.88
2022-08-19T06:55:06.229Z,100343.41
2022-08-19T06:57:36.384Z,100339.50
2022-08-19T07:00:13.041Z,100339.97
2022-08-19T07:02:44.685Z,100348.25
2022-08-19T07:05:18.953Z,100346.06
2022-08-19T07:07:48.796Z,100355.00
2022-08-19T07:10:20.173Z,100349.38
2022-08-19T07:12:48.601Z,100345.91
2022-08-19T07:15:17.212Z,100353.34
2022-08-19T07:17:49.320Z,100341.88
2022-08-19T07:20:22.836Z,100344.66
2022-08-19T07:22:57.251Z,100340.78
2022-08-19T07:25:32.258Z,100333.50
2022-08-19T07:28:01.828Z,100335.91
2022-08-19T07:30:30.424Z,100334.22
2022-08-19T07:33:00.204Z,100338.59
2022-08-19T07:35:34.504Z,100344.25
2022-08-19T07:38:04.689Z,100344.22
2022-08-19T07:40:33.290Z,100341.34
2022-08-19T07:43:01.977Z,100345.13
2022-08-19T07:45:30.485Z,100352.34
2022-08-19T07:47:59.465Z,100344.94
2022-08-19T07:50:28.044Z,100349.72
2022-08-19T07:52:57.987Z,100345.94
2022-08-19T07:55:41.794Z,100350.94
2022-08-19T07:58:15.112Z,100361.47
2022-08-19T08:00:44.612Z,100343.38
2022-08-19T08:03:13.572Z,100354.31
2022-08-19T08:06:00.052Z,100347.75
2022-08-19T08:08:48.580Z,100357.47
2022-08-19T08:11:20.736Z,100341.13
2022-08-19T08:14:00.760Z,100342.06
2022-08-19T08:16:35.721Z,100342.91
2022-08-19T08:19:20.280Z,100343.63
2022-08-19T08:21:52.688Z,100338.53
2022-08-19T08:24:22.461Z,100338.22
2022-08-19T08:26:57.792Z,100330.44
2022-08-19T08:29:26.764Z,100338.16
2022-08-19T08:32:03.389Z,100336.31
2022-08-19T08:34:31.865Z,100339.50
2022-08-19T08:37:00.368Z,100346.56
2022-08-19T08:39:30.427Z,100354.31
2022-08-19T08:42:17.785Z,100346.47
2022-08-19T08:47:40.933Z,100349.69
2022-08-19T08:50:15.634Z,100344.16
2022-08-19T08:52:49.019Z,100351.09
2022-08-19T08:55:24.741Z,100343.38
2022-08-19T08:58:01.147Z,100343.75
2022-08-19T09:00:34.940Z,100345.06
2022-08-19T09:03:06.525Z,100344.34
2022-08-19T09:05:50.385Z,100337.97
2022-08-19T09:08:28.536Z,100339.66
2022-08-19T09:10:59.364Z,100333.78
2022-08-19T09:13:38.325Z,100343.59
2022-08-19T09:16:12.431Z,100340.19
2022-08-19T09:18:44.884Z,100343.41
2022-08-19T09:21:14.109Z,100343.75
2022-08-19T09:23:44.270Z,100334.66
2022-08-19T09:26:17.749Z,100340.63
2022-08-19T09:28:51.785Z,100324.59
2022-08-19T09:31:22.860Z,100323.28
2022-08-19T09:33:53.343Z,100333.75
2022-08-19T09:36:34.500Z,100331.75
2022-08-19T09:39:04.684Z,100336.16
2022-08-19T09:41:47.262Z,100338.38
2022-08-19T09:44:16.193Z,100329.56
2022-08-19T09:46:44.806Z,100325.38
2022-08-19T09:49:13.475Z,100329.09
2022-08-19T09:51:41.861Z,100319.84
2022-08-19T09:54:11.437Z,100319.19
2022-08-19T09:56:40.000Z,100327.13
2022-08-19T09:59:13.047Z,100324.53
2022-08-19T10:01:41.790Z,100323.97
2022-08-19T10:04:19.956Z,100330.88
2022-08-19T10:06:51.799Z,100334.25
2022-08-19T10:09:34.016Z,100327.59
2022-08-19T10:12:04.081Z,100326.63
2022-08-19T10:14:33.973Z,100332.13
2022-08-19T10:17:19.835Z,100328.09
2022-08-19T10:19:55.521Z,100330.06
2022-08-19T10:22:25.668Z,100330.91
2022-08-19T10:24:55.293Z,100331.91
2022-08-19T10:27:23.904Z,100333.19
2022-08-19T10:29:56.398Z,100331.91
2022-08-19T10:32:32.036Z,100337.06
2022-08-19T10:35:05.457Z,100333.63
2022-08-19T10:37:35.259Z,100336.75
2022-08-19T10:40:05.688Z,100334.66
2022-08-19T10:42:34.333Z,100324.94
2022-08-19T10:45:05.060Z,100327.09
2022-08-19T10:47:33.697Z,100324.59
2022-08-19T10:50:19.257Z,100318.41
2022-08-19T10:52:51.005Z,100317.53
2022-08-19T10:55:45.488Z,100309.47
2022-08-19T10:58:15.892Z,100308.28
2022-08-19T11:00:54.080Z,100302.03
2022-08-19T11:03:22.902Z,100309.63
2022-08-19T11:06:01.295Z,100311.47
2022-08-19T11:08:31.672Z,100312.47
2022-08-19T11:11:04.166Z,100312.06
2022-08-19T11:13:36.712Z,100306.19
2022-08-19T11:16:09.516Z,100298.22
2022-08-19T11:18:39.582Z,100294.91
2022-08-19T11:21:10.877Z,100298.06
2022-08-19T11:23:39.616Z,100293.25
2022-08-19T11:26:08.080Z,100280.22
2022-08-19T11:28:36.816Z,100285.22
2022-08-19T11:31:11.014Z,100277.63
2022-08-19T11:33:39.768Z,100272.59
2022-08-19T11:36:08.936Z,100270.50
2022-08-19T11:38:38.760Z,100270.25
2022-08-19T11:41:09.475Z,100262.38
2022-08-19T11:43:40.557Z,100256.59
2022-08-19T11:46:13.873Z,100262.13
2022-08-19T11:48:43.065Z,100267.59
2022-08-19T11:51:16.660Z,100259.22
2022-08-19T11:53:45.629Z,100254.59
2022-08-19T11:56:14.856Z,100251.19
2022-08-19T11:58:44.559Z,100259.00
2022-08-19T12:01:17.540Z,100254.88
2022-08-19T12:03:47.513Z,100252.47
2022-08-19T12:06:20.538Z,100250.03
2022-08-19T12:08:49.422Z,100253.38
2022-08-19T12:11:18.071Z,100254.28
2022-08-19T12:13:47.342Z,100258.75
2022-08-19T12:16:20.184Z,100258.94
2022-08-19T12:18:49.383Z,100257.97
2022-08-19T12:21:22.138Z,100259.44
2022-08-19T12:23:55.687Z,100262.97
2022-08-19T12:26:25.525Z,100252.00
2022-08-19T12:28:54.578Z,100245.72
2022-08-19T12:31:24.436Z,100250.56
2022-08-19T12:33:53.280Z,100254.94
2022-08-19T12:36:22.934Z,100260.25
2022-08-19T12:38:51.493Z,100255.44
2022-08-19T12:41:23.164Z,100242.34
2022-08-19T12:43:52.105Z,100240.41
2022-08-19T12:46:23.781Z,100243.19
2022-08-19T12:48:56.091Z,100240.16
2022-08-19T12:51:26.200Z,100238.50
2022-08-19T12:53:54.626Z,100248.25
2022-08-19T12:56:23.507Z,100242.75
2022-08-19T12:58:52.877Z,100244.13
2022-08-19T13:01:23.569Z,100248.53
2022-08-19T13:03:54.145Z,100249.03
2022-08-19T13:06:22.573Z,100252.31
2022-08-19T13:08:51.081Z,100241.97
2022-08-19T13:11:25.254Z,100243.75
2022-08-19T13:13:56.329Z,100256.44
2022-08-19T13:16:28.468Z,100253.97
2022-08-19T13:18:58.213Z,100256.91
2022-08-19T13:21:30.850Z,100254.13
2022-08-19T13:23:59.406Z,100260.34
2022-08-19T13:26:27.828Z,100262.72
2022-08-19T13:29:13.929Z,100259.19
2022-08-19T13:32:01.764Z,100266.75
2022-08-19T13:34:36.007Z,100254.16
2022-08-19T13:37:06.553Z,100253.72
2022-08-19T13:39:36.411Z,100253.91
2022-08-19T13:42:06.547Z,100248.34
2022-08-19T13:44:35.058Z,100244.22
2022-08-19T13:47:07.937Z,100243.81
2022-08-19T13:49:38.069Z,100255.06
2022-08-19T13:52:07.791Z,100244.06
2022-08-19T13:54:36.120Z,100250.75
2022-08-19T13:57:05.014Z,100253.16
2022-08-19T13:59:34.028Z,100253.28
2022-08-19T14:02:06.410Z,100249.97
2022-08-19T14:04:34.944Z,100249.13
2022-08-19T14:07:04.336Z,100250.25
2022-08-19T14:09:32.921Z,100254.41
2022-08-19T14:12:01.484Z,100237.25
2022-08-19T14:14:30.057Z,100240.13
2022-08-19T14:16:58.421Z,100236.53
2022-08-19T14:19:30.001Z,100238.16
2022-08-19T14:21:59.547Z,100233.81
2022-08-19T14:24:28.031Z,100229.59
2022-08-19T14:26:56.486Z,100217.47
2022-08-19T14:29:24.883Z,100212.22
2022-08-19T14:31:53.306Z,100204.31
2022-08-19T14:34:21.746Z,100191.94
2022-08-19T14:36:51.580Z,100185.84
2022-08-19T14:39:20.172Z,100188.22
2022-08-19T14:41:48.541Z,100180.66
2022-08-19T14:44:17.025Z,100176.81
2022-08-19T14:46:49.687Z,100178.78
2022-08-19T14:49:18.932Z,100186.91
2022-08-19T14:51:48.613Z,100192.72
2022-08-19T14:54:18.437Z,100184.78
2022-08-19T14:56:46.954Z,100177.50
2022-08-19T14:59:15.552Z,100184.75
2022-08-19T15:01:44.302Z,100171.81
2022-08-19T15:04:12.736Z,100173.72
2022-08-19T15:06:43.311Z,100180.88
2022-08-19T15:09:12.219Z,100177.38
2022-08-19T15:11:41.954Z,100187.56
2022-08-19T15:14:10.966Z,100184.59
2022-08-19T15:16:42.600Z,100183.06
2022-08-19T15:19:11.377Z,100183.03
2022-08-19T15:21:39.898Z,100190.47
2022-08-19T15:24:10.085Z,100188.81
2022-08-19T15:26:38.661Z,100189.31
2022-08-19T15:29:09.193Z,100183.47
2022-08-19T15:31:37.962Z,100197.63
2022-08-19T15:34:07.710Z,100193.63
2022-08-19T15:36:36.544Z,100202.16
2022-08-19T15:39:07.407Z,100191.66
2022-08-19T15:41:37.126Z,100194.75
2022-08-19T15:44:13.206Z,100192.84
2022-08-19T15:46:45.310Z,100189.56
2022-08-19T15:49:16.072Z,100194.53
2022-08-19T15:51:47.538Z,100192.53
2022-08-19T15:54:21.594Z,100197.97
2022-08-19T15:57:08.603Z,100202.00
2022-08-19T15:59:59.989Z,100205.16
2022-08-19T16:02:53.519Z,100201.28
2022-08-19T16:05:44.482Z,100201.56
2022-08-19T16:08:13.397Z,100198.44
2022-08-19T16:10:41.922Z,100196.44
2022-08-19T16:13:10.852Z,100199.06
2022-08-19T16:15:44.929Z,100199.84
2022-08-19T16:18:13.635Z,100191.84
2022-08-19T16:20:42.133Z,100202.06
2022-08-19T16:23:10.568Z,100195.72
2022-08-19T16:25:39.333Z,100195.78
2022-08-19T16:28:09.751Z,100197.38
2022-08-19T16:30:42.840Z,100196.22
2022-08-19T16:33:22.669Z,100196.03
2022-08-19T16:35:56.079Z,100196.78
2022-08-19T16:38:29.790Z,100197.06
2022-08-19T16:41:00.485Z,100196.50
2022-08-19T16:43:31.913Z,100199.84
2022-08-19T16:46:02.474Z,100201.91
2022-08-19T16:48:32.924Z,100211.59
2022-08-19T16:51:02.640Z,100218.75
2022-08-19T16:53:32.068Z,100222.28
2022-08-19T16:56:01.520Z,100219.94
2022-08-19T16:58:33.988Z,100223.38
2022-08-19T17:01:07.566Z,100225.88
2022-08-19T17:03:37.664Z,100221.44
2022-08-19T17:06:20.355Z,100229.47
2022-08-19T17:08:50.158Z,100226.28
2022-08-19T17:11:19.834Z,100225.25
2022-08-19T17:13:49.395Z,100228.72
2022-08-19T17:16:22.064Z,100227.78
2022-08-19T17:18:52.817Z,100227.53
2022-08-19T17:21:21.745Z,100230.59
2022-08-19T17:23:50.628Z,100233.31
2022-08-19T17:26:19.821Z,100231.63
2022-08-19T17:28:50.213Z,100230.59
2022-08-19T17:31:23.948Z,100229.50
2022-08-19T17:33:52.861Z,100232.44
2022-08-19T17:36:26.294Z,100234.13
2022-08-19T17:38:56.631Z,100234.47
2022-08-19T17:41:25.693Z,100241.25
2022-08-19T17:43:54.437Z,100238.81
2022-08-19T17:46:24.310Z,100237.28
2022-08-19T17:48:57.628Z,100236.44
2022-08-19T17:51:42.196Z,100239.53
2022-08-19T17:54:15.200Z,100239.66
2022-08-19T17:56:46.198Z,100230.72
2022-08-19T17:59:15.654Z,100241.75
2022-08-19T18:01:53.930Z,100247.19
2022-08-19T18:04:24.789Z,100243.72
2022-08-19T18:06:54.907Z,100247.28
2022-08-19T18:09:26.244Z,100241.69
2022-08-19T18:11:56.781Z,100245.59
2022-08-19T18:14:33.787Z,100251.88
2022-08-19T18:17:09.468Z,100251.84
2022-08-19T18:19:42.188Z,100256.03
2022-08-19T18:22:26.676Z,100251.63
2022-08-19T18:24:56.079Z,100261.88
2022-08-19T18:27:24.846Z,100271.13
2022-08-19T18:29:56.633Z,100268.75
2022-08-19T18:32:27.421Z,100267.97
2022-08-19T18:34:56.131Z,100264.72
2022-08-19T18:37:26.656Z,100271.91
2022-08-19T18:40:12.944Z,100278.28
2022-08-19T18:43:02.166Z,100284.94
2022-08-19T18:45:48.337Z,100286.50
2022-08-19T18:48:35.631Z,100290.28
2022-08-19T18:51:04.561Z,100297.63
2022-08-19T18:53:37.655Z,100297.75
2022-08-19T18:56:06.609Z,100302.03
2022-08-19T18:58:35.981Z,100305.66
2022-08-19T19:01:10.774Z,100317.34
2022-08-19T19:03:45.244Z,100321.66
2022-08-19T19:06:16.089Z,100314.50
2022-08-19T19:08:44.588Z,100318.09
2022-08-19T19:11:13.309Z,100319.69
2022-08-19T19:13:42.145Z,100330.38
2022-08-19T19:16:11.570Z,100322.34
2022-08-19T19:18:42.534Z,100333.03
2022-08-19T19:21:11.692Z,100338.28
2022-08-19T19:23:42.360Z,100339.69
2022-08-19T19:26:11.829Z,100344.84
2022-08-19T19:28:48.044Z,100351.47
2022-08-19T19:31:22.741Z,100349.25
2022-08-19T19:33:52.336Z,100358.31
2022-08-19T19:36:21.341Z,100361.19
2022-08-19T19:38:49.796Z,100363.16
2022-08-19T19:41:23.361Z,100365.13
2022-08-19T19:44:10.103Z,100376.19
2022-08-19T19:46:42.372Z,100381.84
2022-08-19T19:49:13.353Z,100383.97
2022-08-19T19:51:43.361Z,100387.13
2022-08-19T19:54:14.649Z,100382.16
2022-08-19T19:56:45.050Z,100380.91
2022-08-19T19:59:13.974Z,100393.22
2022-08-19T20:01:46.857Z,100393.75
2022-08-19T20:04:18.316Z,100402.38
2022-08-19T20:06:47.816Z,100409.28
2022-08-19T20:09:19.709Z,100409.88
2022-08-19T20:11:53.498Z,100413.81
2022-08-19T20:14:25.169Z,100421.44
2022-08-19T20:16:55.636Z,100423.69
2022-08-19T20:19:28.227Z,100424.25
2022-08-19T20:21:57.628Z,100421.16
2022-08-19T20:24:33.096Z,100427.94
2022-08-19T20:27:02.529Z,100428.47
2022-08-19T20:29:39.059Z,100436.09
2022-08-19T20:32:10.014Z,100435.75
2022-08-19T20:34:41.043Z,100441.69
2022-08-19T20:37:09.861Z,100443.91
2022-08-19T20:39:38.699Z,100442.63
2022-08-19T20:42:07.504Z,100449.38
2022-08-19T20:44:36.301Z,100441.00
2022-08-19T20:47:04.852Z,100442.41
2022-08-19T20:49:33.488Z,100441.25
2022-08-19T20:52:06.240Z,100444.31
2022-08-19T20:54:34.726Z,100449.50
2022-08-19T20:57:05.359Z,100450.75
2022-08-19T20:59:34.377Z,100459.22
2022-08-19T21:02:02.726Z,100456.91
2022-08-19T21:04:31.144Z,100453.88
2022-08-19T21:06:59.853Z,100458.78
2022-08-19T21:09:29.670Z,100454.66
2022-08-19T21:11:58.069Z,100455.19
2022-08-19T21:14:26.548Z,100457.41
2022-08-19T21:16:55.432Z,100459.34
2022-08-19T21:19:24.285Z,100450.88
2022-08-19T21:21:53.720Z,100454.78
2022-08-19T21:24:26.342Z,100452.34
2022-08-19T21:27:01.717Z,100453.59
2022-08-19T21:29:32.036Z,100456.53
2022-08-19T21:32:00.475Z,100455.06
2022-08-19T21:34:29.445Z,100462.66
2022-08-19T21:36:57.833Z,100461.19
2022-08-19T21:39:26.228Z,100461.44
2022-08-19T21:41:54.756Z,100457.34
2022-08-19T21:44:24.517Z,100472.69
2022-08-19T21:46:52.920Z,100472.91
2022-08-19T21:49:21.333Z,100471.47
2022-08-19T21:51:50.030Z,100468.06
2022-08-19T21:54:18.452Z,100471.97
2022-08-19T21:56:47.403Z,100461.50
2022-08-19T21:59:16.866Z,100465.41
2022-08-19T22:01:51.973Z,100469.31
2022-08-19T22:04:25.096Z,100473.22
2022-08-19T22:06:55.205Z,100473.47
2022-08-19T22:09:23.823Z,100477.25
2022-08-19T22:11:52.204Z,100476.66
2022-08-19T22:14:20.861Z,100479.56
2022-08-19T22:16:50.573Z,100476.41
2022-08-19T22:19:18.990Z,100471.56
2022-08-19T22:21:47.344Z,100473.75
2022-08-19T22:24:15.706Z,100458.19
2022-08-19T22:26:44.136Z,100464.03
2022-08-19T22:29:15.700Z,100467.91
2022-08-19T22:31:46.128Z,100470.84
2022-08-19T22:34:24.790Z,100473.00
2022-08-19T22:36:53.212Z,100474.22
2022-08-19T22:39:21.549Z,100474.47
2022-08-19T22:41:49.998Z,100480.75
2022-08-19T22:44:18.405Z,100481.84
2022-08-19T22:46:46.753Z,100490.75
2022-08-19T22:49:15.144Z,100492.53
2022-08-19T22:52:02.400Z,100487.34
2022-08-19T22:54:31.008Z,100484.66
2022-08-19T22:57:00.028Z,100488.41
2022-08-19T22:59:28.614Z,100487.69
2022-08-19T23:01:57.049Z,100487.81
2022-08-19T23:04:25.756Z,100494.00
2022-08-19T23:06:55.653Z,100491.19
2022-08-19T23:09:24.074Z,100485.84
2022-08-19T23:11:53.831Z,100483.69
2022-08-19T23:14:22.309Z,100483.44
2022-08-19T23:16:51.554Z,100482.34
2022-08-19T23:19:22.115Z,100475.91
2022-08-19T23:21:50.721Z,100474.81
2022-08-19T23:24:20.608Z,100477.34
2022-08-19T23:27:07.022Z,100477.34
2022-08-19T23:29:53.001Z,100473.00
2022-08-19T23:32:23.471Z,100468.63
2022-08-19T23:34:51.992Z,100472.25
2022-08-19T23:37:20.386Z,100462.63
2022-08-19T23:39:52.440Z,100465.44
2022-08-19T23:42:21.411Z,100472.75
2022-08-19T23:44:51.305Z,100474.69
2022-08-19T23:47:21.557Z,100480.28
2022-08-19T23:49:50.581Z,100480.50
2022-08-19T23:52:19.439Z,100477.97
2022-08-19T23:54:48.201Z,100483.41
2022-08-19T23:57:18.100Z,100481.84
2022-08-19T23:59:46.499Z,100475.88
